Anmare — V2EO3 — position and weather

sailwx.info

Track history (hours):
 
Tides and Currents Weather Stations Pressure Air Temp Water Temp Dewpoint Dewpoint Depression Visibility Wind Speed Wind Dir Waves Ship Positions

Anmare

Last reported at 2017-Nov-24 14:30 UTC. Time now 2017-Nov-24 14:54 UTC.
Position N 54°36' E 018°53'.

Length 88 m; draft 3.6 m.

Type: Cargo ship. MMSI: 305493000.

Date/timePositionNaut miles runAvg speedWind from/ knotsBaromVisibWave heightAir tempDewpointWater temp
2017-Nov-24 14:30N 54°36' E 018°53'510.2
2017-Nov-24 14:00N 54°41' E 018°56'510.7
2017-Nov-24 13:31N 54°46' E 018°58'611.3
2017-Nov-24 13:01N 54°49' E 018°50'611.4
2017-Nov-24 12:31N 54°53' E 018°42'511.0
2017-Nov-24 12:00N 54°55' E 018°33'611.4
2017-Nov-24 11:30N 54°55' E 018°23'611.2
2017-Nov-24 11:00N 54°54' E 018°14'611.4
2017-Nov-24 10:29N 54°54' E 018°03'3611.5
2017-Nov-24 07:23N 54°50' E 017°02'13611.5
2017-Nov-23 19:32N 54°44' E 013°06'010.9
2017-Nov-23 19:30N 54°44' E 013°06'510.9
2017-Nov-23 19:00N 54°43' E 012°56'611.3
2017-Nov-23 18:30N 54°43' E 012°46'1711.5
2017-Nov-23 17:02N 54°34' E 012°22'111.9
2017-Nov-23 16:58N 54°33' E 012°21'2410.9
2017-Nov-23 14:44N 54°11' E 012°06'3 7.1
2017-Nov-23 14:15N 54°07' E 012°06'0 1.4
2017-Nov-23 14:00N 54°07' E 012°05'0 0.1
2017-Nov-23 13:30N 54°07' E 012°05'0 0.0
2017-Nov-23 12:42N 54°07' E 012°05'0 0.0
2017-Nov-23 12:30N 54°07' E 012°05'0 0.0
2017-Nov-23 07:24N 54°07' E 012°05'0 0.0
2017-Nov-23 07:00N 54°07' E 012°05'0 0.0
2017-Nov-23 04:21N 54°07' E 012°05'0 0.0
2017-Nov-23 03:54N 54°07' E 012°05'0 0.0
2017-Nov-23 02:45N 54°07' E 012°05'0 0.0
2017-Nov-23 02:27N 54°07' E 012°05'0 0.0
2017-Nov-23 02:00N 54°07' E 012°05'0 0.0
2017-Nov-23 01:21N 54°07' E 012°05'0 0.0
2017-Nov-23 00:12N 54°07' E 012°05'0 0.0
2017-Nov-22 22:09N 54°07' E 012°05'0 0.0
2017-Nov-22 22:00N 54°07' E 012°05'0 0.0
2017-Nov-22 21:12N 54°07' E 012°05'0 0.0
2017-Nov-22 21:00N 54°07' E 012°05'0 0.0
2017-Nov-22 20:09N 54°07' E 012°05'0 0.0
2017-Nov-22 20:00N 54°07' E 012°05'  
2017-Nov-20 00:30N 54°18' E 009°40'0 0.0
2017-Nov-20 00:00N 54°18' E 009°40'0 0.0
2017-Nov-19 23:30N 54°18' E 009°40'0 0.0
2017-Nov-19 23:00N 54°18' E 009°40'0 0.0
2017-Nov-19 22:30N 54°18' E 009°40'0 0.0
2017-Nov-19 22:00N 54°18' E 009°40'0 0.0
2017-Nov-19 21:30N 54°18' E 009°40'0 0.0
2017-Nov-19 21:00N 54°18' E 009°40'0 0.0
2017-Nov-19 20:30N 54°18' E 009°40'0 0.0
2017-Nov-19 19:54N 54°18' E 009°40'0 0.0
2017-Nov-19 19:30N 54°18' E 009°40'0 0.0
2017-Nov-19 19:00N 54°18' E 009°40'0 0.0
2017-Nov-19 18:30N 54°18' E 009°40'0 0.0
2017-Nov-19 17:57N 54°18' E 009°40'0 0.0
2017-Nov-19 17:30N 54°18' E 009°40'0 0.0
2017-Nov-19 17:00N 54°18' E 009°40'0 0.0
2017-Nov-19 16:30N 54°18' E 009°40'0 0.0
2017-Nov-19 16:00N 54°18' E 009°40'0 0.0
2017-Nov-19 15:30N 54°18' E 009°40'0 0.0
2017-Nov-19 15:00N 54°18' E 009°40'0 0.3
2017-Nov-19 14:30N 54°18' E 009°40'3 6.4
2017-Nov-19 14:00N 54°15' E 009°37'4 8.0
2017-Nov-19 13:31N 54°12' E 009°33'4 8.5
2017-Nov-19 13:01N 54°10' E 009°26'4 8.4
2017-Nov-19 12:30N 54°08' E 009°20'4 8.4
2017-Nov-19 12:00N 54°04' E 009°19'4 8.5
2017-Nov-19 11:30N 53°60' E 009°17'4 8.4
2017-Nov-19 11:00N 53°56' E 009°13'4 7.4
2017-Nov-19 10:30N 53°54' E 009°09'0 0.0
2017-Nov-19 10:00N 53°54' E 009°09'1 2.0
2017-Nov-19 09:30N 53°53' E 009°07'4 7.6
2017-Nov-19 09:00N 53°52' E 009°01'510.1
2017-Nov-19 08:30N 53°50' E 008°53'4 9.1
2017-Nov-19 08:00N 53°51' E 008°45'5 9.3
2017-Nov-19 07:30N 53°55' E 008°40'5 8.9
2017-Nov-19 06:59N 53°58' E 008°34'9 9.6
2017-Nov-19 06:03N 53°59' E 008°19'111.7
2017-Nov-19 05:59N 53°59' E 008°18'511.1
2017-Nov-19 05:30N 53°59' E 008°09'7 9.7
2017-Nov-19 04:44N 53°57' E 007°57'2 9.6
2017-Nov-19 04:30N 53°57' E 007°53'13110.4
2017-Nov-18 15:51N 53°07' E 004°30'411.8
2017-Nov-18 15:30N 53°03' E 004°26'1011.3
2017-Nov-18 14:38N 52°55' E 004°18'111.0
2017-Nov-18 14:30N 52°53' E 004°17'1410.8
2017-Nov-18 13:12N 52°42' E 004°04'62 8.5
2017-Nov-18 05:52N 51°47' E 003°16'410.2
2017-Nov-18 05:30N 51°43' E 003°17'4 7.7
2017-Nov-18 04:58N 51°39' E 003°20'511.6
2017-Nov-18 04:30N 51°34' E 003°24'612.3
2017-Nov-18 04:00N 51°29' E 003°30'510.6
2017-Nov-18 03:31N 51°26' E 003°36'5 9.0
2017-Nov-18 03:01N 51°24' E 003°43'510.9
2017-Nov-18 02:31N 51°20' E 003°49'1 2.0
2017-Nov-18 02:01N 51°19' E 003°50'4 7.4
2017-Nov-18 01:30N 51°16' E 003°50'3 4.9
2017-Nov-18 00:59N 51°13' E 003°48'0 0.0
2017-Nov-18 00:29N 51°13' E 003°48'0 0.0
2017-Nov-17 23:59N 51°13' E 003°48'0 0.0
2017-Nov-17 23:29N 51°13' E 003°48'0 0.0
2017-Nov-17 22:59N 51°13' E 003°48'0 0.0
2017-Nov-17 22:29N 51°13' E 003°48'0 0.0
2017-Nov-17 21:59N 51°13' E 003°48'0 0.0
2017-Nov-17 21:29N 51°13' E 003°48'0 0.0
2017-Nov-17 20:59N 51°13' E 003°48'0 0.0
2017-Nov-17 20:29N 51°13' E 003°48'0 0.0
2017-Nov-17 19:59N 51°13' E 003°48'0 0.0
2017-Nov-17 19:29N 51°13' E 003°48'0 0.0
2017-Nov-17 18:59N 51°13' E 003°48'0 0.0
2017-Nov-17 18:29N 51°13' E 003°48'0 0.0
2017-Nov-17 17:59N 51°13' E 003°48'0 0.0
2017-Nov-17 17:29N 51°13' E 003°48'0 0.0
2017-Nov-17 16:59N 51°13' E 003°48'0 0.0
2017-Nov-17 16:29N 51°13' E 003°48'0 0.0
2017-Nov-17 15:59N 51°13' E 003°48'0 0.0
2017-Nov-17 15:29N 51°13' E 003°48'0 0.0
2017-Nov-17 14:59N 51°13' E 003°48'0 0.0
2017-Nov-17 14:29N 51°13' E 003°48'0 0.0
2017-Nov-17 13:59N 51°13' E 003°48'0 0.0
2017-Nov-17 13:29N 51°13' E 003°48'0 0.0
2017-Nov-17 12:59N 51°13' E 003°48'0 0.0
2017-Nov-17 12:29N 51°13' E 003°48'0 0.0
2017-Nov-17 11:59N 51°13' E 003°48'0 0.0
2017-Nov-17 11:26N 51°13' E 003°48'0 0.0
2017-Nov-17 10:59N 51°13' E 003°48'0 0.0
2017-Nov-17 10:29N 51°13' E 003°48'0 0.0
2017-Nov-17 09:59N 51°13' E 003°48'0 0.0
2017-Nov-17 09:29N 51°13' E 003°48'0 0.0
2017-Nov-17 08:59N 51°13' E 003°48'0 0.0
2017-Nov-17 08:29N 51°13' E 003°48'0 0.0
2017-Nov-17 07:59N 51°13' E 003°48'0 0.0
2017-Nov-17 07:29N 51°13' E 003°48'0 0.0
2017-Nov-17 06:59N 51°13' E 003°48'0 0.0
2017-Nov-17 06:29N 51°13' E 003°48'0 0.0
2017-Nov-17 05:59N 51°13' E 003°48'0 0.0
2017-Nov-17 05:29N 51°13' E 003°48'0 0.0
2017-Nov-17 04:59N 51°13' E 003°48'0 0.0
2017-Nov-17 04:29N 51°13' E 003°48'0 0.0
2017-Nov-17 03:59N 51°13' E 003°48'0 0.0
2017-Nov-17 03:29N 51°13' E 003°48'0 0.0
2017-Nov-17 02:59N 51°13' E 003°48'0 0.0
2017-Nov-17 02:29N 51°13' E 003°48'0 0.0
2017-Nov-17 01:59N 51°13' E 003°48'0 0.0
2017-Nov-17 01:29N 51°13' E 003°48'0 0.0
2017-Nov-17 00:59N 51°13' E 003°48'0 0.0
2017-Nov-17 00:29N 51°13' E 003°48'0 0.0
2017-Nov-16 23:59N 51°13' E 003°48'0 0.0
2017-Nov-16 23:29N 51°13' E 003°48'0 0.0
2017-Nov-16 22:59N 51°13' E 003°48'0 0.0
2017-Nov-16 22:29N 51°13' E 003°48'0 0.0
2017-Nov-16 21:59N 51°13' E 003°48'0 0.0
2017-Nov-16 21:29N 51°13' E 003°48'0 0.0
2017-Nov-16 20:59N 51°13' E 003°48'0 0.0
2017-Nov-16 20:29N 51°13' E 003°48'0 0.1
2017-Nov-16 19:59N 51°13' E 003°48'0 0.0
2017-Nov-16 19:29N 51°13' E 003°48'0 0.0
2017-Nov-16 18:59N 51°13' E 003°48'0 0.0
2017-Nov-16 18:29N 51°13' E 003°48'0 0.0
2017-Nov-16 17:59N 51°13' E 003°48'0 0.0
2017-Nov-16 17:29N 51°13' E 003°48'0 0.0
2017-Nov-16 16:59N 51°13' E 003°48'0 0.0
2017-Nov-16 16:29N 51°13' E 003°48'0 0.0
2017-Nov-16 15:59N 51°13' E 003°48'0 0.0
2017-Nov-16 15:29N 51°13' E 003°48'0 0.0
2017-Nov-16 14:59N 51°13' E 003°48'0 0.0
2017-Nov-16 14:29N 51°13' E 003°48'0 0.0
2017-Nov-16 13:56N 51°13' E 003°48'0 0.0
2017-Nov-16 13:29N 51°13' E 003°48'0 0.0
2017-Nov-16 12:59N 51°13' E 003°48'0 0.0
2017-Nov-16 12:29N 51°13' E 003°48'0 0.6
2017-Nov-16 12:00N 51°13' E 003°48'3 6.7
2017-Nov-16 11:30N 51°17' E 003°50'3 6.7
2017-Nov-16 11:00N 51°20' E 003°49'0 0.9
2017-Nov-16 10:30N 51°20' E 003°49'0 0.3
2017-Nov-16 10:00N 51°20' E 003°49'1 1.1
2017-Nov-16 09:30N 51°21' E 003°48'5 9.1
2017-Nov-16 09:00N 51°23' E 003°42'611.9
2017-Nov-16 08:31N 51°26' E 003°34'713.2
2017-Nov-16 08:01N 51°31' E 003°26'612.7
2017-Nov-16 07:30N 51°37' E 003°22'712.3
2017-Nov-16 06:58N 51°42' E 003°16'5 9.1
2017-Nov-16 06:28N 51°46' E 003°11'61 8.8
2017-Nov-15 23:28N 52°32' E 002°07'5 9.9
2017-Nov-15 22:59N 52°37' E 002°06'510.3
2017-Nov-15 22:30N 52°42' E 002°02'510.4
2017-Nov-15 21:59N 52°46' E 001°57'611.5
2017-Nov-15 21:30N 52°49' E 001°50'611.9
2017-Nov-15 21:00N 52°53' E 001°42'612.3
2017-Nov-15 20:30N 52°58' E 001°36'612.6
2017-Nov-15 20:00N 53°03' E 001°31'612.9
2017-Nov-15 19:30N 53°09' E 001°25'6513.0
2017-Nov-15 14:30N 54°04' E 000°25'713.3
2017-Nov-15 14:00N 54°09' E 000°20'713.3
2017-Nov-15 13:31N 54°15' E 000°14'713.1
2017-Nov-15 13:00N 54°21' E 000°08'612.9
2017-Nov-15 12:31N 54°26' E 000°02'612.7
2017-Nov-15 12:01N 54°32' W 000°03'612.5
2017-Nov-15 11:30N 54°37' W 000°09'612.2
2017-Nov-15 11:00N 54°42' W 000°15'5711.4
2017-Nov-15 06:01N 55°31' W 001°06'211.1
2017-Nov-15 05:51N 55°32' W 001°08'1511.2
2017-Nov-15 04:31N 55°45' W 001°22'011.2
2017-Nov-15 04:30N 55°45' W 001°22'611.4
2017-Nov-15 03:59N 55°48' W 001°31'611.8
2017-Nov-15 03:30N 55°51' W 001°40'611.9
2017-Nov-15 03:00N 55°54' W 001°49'612.0
2017-Nov-15 02:29N 55°57' W 001°58'612.3
2017-Nov-15 02:01N 56°00' W 002°07'612.3
2017-Nov-15 01:30N 56°03' W 002°17'612.2
2017-Nov-15 01:01N 56°06' W 002°27'612.1
2017-Nov-15 00:30N 56°07' W 002°37'611.9
2017-Nov-15 00:01N 56°09' W 002°48'611.5
2017-Nov-14 23:31N 56°10' W 002°58'2 3.2
2017-Nov-14 22:58N 56°11' W 003°01'0 0.0
2017-Nov-14 22:28N 56°11' W 003°01'0 0.0
2017-Nov-14 21:58N 56°11' W 003°01'0 0.0
2017-Nov-14 21:28N 56°11' W 003°01'0 0.0
2017-Nov-14 20:58N 56°11' W 003°01'0 0.0
2017-Nov-14 20:28N 56°11' W 003°01'0 0.0
2017-Nov-14 19:58N 56°11' W 003°01'0 0.0
2017-Nov-14 19:28N 56°11' W 003°01'0 0.0
2017-Nov-14 18:58N 56°11' W 003°01'0 0.0
2017-Nov-14 18:28N 56°11' W 003°01'0 0.0
2017-Nov-14 17:58N 56°11' W 003°01'0 0.0
2017-Nov-14 17:28N 56°11' W 003°01'0 0.0
2017-Nov-14 16:58N 56°11' W 003°01'0 0.0
2017-Nov-14 16:28N 56°11' W 003°01'0 0.0
2017-Nov-14 15:58N 56°11' W 003°01'0 0.0
2017-Nov-14 15:28N 56°11' W 003°01'0 0.0
2017-Nov-14 14:58N 56°11' W 003°01'  
Track history (hours):
 
Tides and Currents Weather Stations Pressure Air Temp Water Temp Dewpoint Dewpoint Depression Visibility Wind Speed Wind Dir Waves Ship Positions

Anmare

Last reported at 2017-Nov-24 14:30 UTC. Time now 2017-Nov-24 14:54 UTC.
Position N 54°36' E 018°53'.

Length 88 m; draft 3.6 m.

Type: Cargo ship. MMSI: 305493000.

Date/timePositionNaut miles runAvg speedWind from/ knotsBaromVisibWave heightAir tempDewpointWater temp
2017-Nov-24 14:30N 54°36' E 018°53'510.2
2017-Nov-24 14:00N 54°41' E 018°56'510.7
2017-Nov-24 13:31N 54°46' E 018°58'611.3
2017-Nov-24 13:01N 54°49' E 018°50'611.4
2017-Nov-24 12:31N 54°53' E 018°42'511.0
2017-Nov-24 12:00N 54°55' E 018°33'611.4
2017-Nov-24 11:30N 54°55' E 018°23'611.2
2017-Nov-24 11:00N 54°54' E 018°14'611.4
2017-Nov-24 10:29N 54°54' E 018°03'3611.5
2017-Nov-24 07:23N 54°50' E 017°02'13611.5
2017-Nov-23 19:32N 54°44' E 013°06'010.9
2017-Nov-23 19:30N 54°44' E 013°06'510.9
2017-Nov-23 19:00N 54°43' E 012°56'611.3
2017-Nov-23 18:30N 54°43' E 012°46'1711.5
2017-Nov-23 17:02N 54°34' E 012°22'111.9
2017-Nov-23 16:58N 54°33' E 012°21'2410.9
2017-Nov-23 14:44N 54°11' E 012°06'3 7.1
2017-Nov-23 14:15N 54°07' E 012°06'0 1.4
2017-Nov-23 14:00N 54°07' E 012°05'0 0.1
2017-Nov-23 13:30N 54°07' E 012°05'0 0.0
2017-Nov-23 12:42N 54°07' E 012°05'0 0.0
2017-Nov-23 12:30N 54°07' E 012°05'0 0.0
2017-Nov-23 07:24N 54°07' E 012°05'0 0.0
2017-Nov-23 07:00N 54°07' E 012°05'0 0.0
2017-Nov-23 04:21N 54°07' E 012°05'0 0.0
2017-Nov-23 03:54N 54°07' E 012°05'0 0.0
2017-Nov-23 02:45N 54°07' E 012°05'0 0.0
2017-Nov-23 02:27N 54°07' E 012°05'0 0.0
2017-Nov-23 02:00N 54°07' E 012°05'0 0.0
2017-Nov-23 01:21N 54°07' E 012°05'0 0.0
2017-Nov-23 00:12N 54°07' E 012°05'0 0.0
2017-Nov-22 22:09N 54°07' E 012°05'0 0.0
2017-Nov-22 22:00N 54°07' E 012°05'0 0.0
2017-Nov-22 21:12N 54°07' E 012°05'0 0.0
2017-Nov-22 21:00N 54°07' E 012°05'0 0.0
2017-Nov-22 20:09N 54°07' E 012°05'0 0.0
2017-Nov-22 20:00N 54°07' E 012°05'  
2017-Nov-20 00:30N 54°18' E 009°40'0 0.0
2017-Nov-20 00:00N 54°18' E 009°40'0 0.0
2017-Nov-19 23:30N 54°18' E 009°40'0 0.0
2017-Nov-19 23:00N 54°18' E 009°40'0 0.0
2017-Nov-19 22:30N 54°18' E 009°40'0 0.0
2017-Nov-19 22:00N 54°18' E 009°40'0 0.0
2017-Nov-19 21:30N 54°18' E 009°40'0 0.0
2017-Nov-19 21:00N 54°18' E 009°40'0 0.0
2017-Nov-19 20:30N 54°18' E 009°40'0 0.0
2017-Nov-19 19:54N 54°18' E 009°40'0 0.0
2017-Nov-19 19:30N 54°18' E 009°40'0 0.0
2017-Nov-19 19:00N 54°18' E 009°40'0 0.0
2017-Nov-19 18:30N 54°18' E 009°40'0 0.0
2017-Nov-19 17:57N 54°18' E 009°40'0 0.0
2017-Nov-19 17:30N 54°18' E 009°40'0 0.0
2017-Nov-19 17:00N 54°18' E 009°40'0 0.0
2017-Nov-19 16:30N 54°18' E 009°40'0 0.0
2017-Nov-19 16:00N 54°18' E 009°40'0 0.0
2017-Nov-19 15:30N 54°18' E 009°40'0 0.0
2017-Nov-19 15:00N 54°18' E 009°40'0 0.3
2017-Nov-19 14:30N 54°18' E 009°40'3 6.4
2017-Nov-19 14:00N 54°15' E 009°37'4 8.0
2017-Nov-19 13:31N 54°12' E 009°33'4 8.5
2017-Nov-19 13:01N 54°10' E 009°26'4 8.4
2017-Nov-19 12:30N 54°08' E 009°20'4 8.4
2017-Nov-19 12:00N 54°04' E 009°19'4 8.5
2017-Nov-19 11:30N 53°60' E 009°17'4 8.4
2017-Nov-19 11:00N 53°56' E 009°13'4 7.4
2017-Nov-19 10:30N 53°54' E 009°09'0 0.0
2017-Nov-19 10:00N 53°54' E 009°09'1 2.0
2017-Nov-19 09:30N 53°53' E 009°07'4 7.6
2017-Nov-19 09:00N 53°52' E 009°01'510.1
2017-Nov-19 08:30N 53°50' E 008°53'4 9.1
2017-Nov-19 08:00N 53°51' E 008°45'5 9.3
2017-Nov-19 07:30N 53°55' E 008°40'5 8.9
2017-Nov-19 06:59N 53°58' E 008°34'9 9.6
2017-Nov-19 06:03N 53°59' E 008°19'111.7
2017-Nov-19 05:59N 53°59' E 008°18'511.1
2017-Nov-19 05:30N 53°59' E 008°09'7 9.7
2017-Nov-19 04:44N 53°57' E 007°57'2 9.6
2017-Nov-19 04:30N 53°57' E 007°53'13110.4
2017-Nov-18 15:51N 53°07' E 004°30'411.8
2017-Nov-18 15:30N 53°03' E 004°26'1011.3
2017-Nov-18 14:38N 52°55' E 004°18'111.0
2017-Nov-18 14:30N 52°53' E 004°17'1410.8
2017-Nov-18 13:12N 52°42' E 004°04'62 8.5
2017-Nov-18 05:52N 51°47' E 003°16'410.2
2017-Nov-18 05:30N 51°43' E 003°17'4 7.7
2017-Nov-18 04:58N 51°39' E 003°20'511.6
2017-Nov-18 04:30N 51°34' E 003°24'612.3
2017-Nov-18 04:00N 51°29' E 003°30'510.6
2017-Nov-18 03:31N 51°26' E 003°36'5 9.0
2017-Nov-18 03:01N 51°24' E 003°43'510.9
2017-Nov-18 02:31N 51°20' E 003°49'1 2.0
2017-Nov-18 02:01N 51°19' E 003°50'4 7.4
2017-Nov-18 01:30N 51°16' E 003°50'3 4.9
2017-Nov-18 00:59N 51°13' E 003°48'0 0.0
2017-Nov-18 00:29N 51°13' E 003°48'0 0.0
2017-Nov-17 23:59N 51°13' E 003°48'0 0.0
2017-Nov-17 23:29N 51°13' E 003°48'0 0.0
2017-Nov-17 22:59N 51°13' E 003°48'0 0.0
2017-Nov-17 22:29N 51°13' E 003°48'0 0.0
2017-Nov-17 21:59N 51°13' E 003°48'0 0.0
2017-Nov-17 21:29N 51°13' E 003°48'0 0.0
2017-Nov-17 20:59N 51°13' E 003°48'0 0.0
2017-Nov-17 20:29N 51°13' E 003°48'0 0.0
2017-Nov-17 19:59N 51°13' E 003°48'0 0.0
2017-Nov-17 19:29N 51°13' E 003°48'0 0.0
2017-Nov-17 18:59N 51°13' E 003°48'0 0.0
2017-Nov-17 18:29N 51°13' E 003°48'0 0.0
2017-Nov-17 17:59N 51°13' E 003°48'0 0.0
2017-Nov-17 17:29N 51°13' E 003°48'0 0.0
2017-Nov-17 16:59N 51°13' E 003°48'0 0.0
2017-Nov-17 16:29N 51°13' E 003°48'0 0.0
2017-Nov-17 15:59N 51°13' E 003°48'0 0.0
2017-Nov-17 15:29N 51°13' E 003°48'0 0.0
2017-Nov-17 14:59N 51°13' E 003°48'0 0.0
2017-Nov-17 14:29N 51°13' E 003°48'0 0.0
2017-Nov-17 13:59N 51°13' E 003°48'0 0.0
2017-Nov-17 13:29N 51°13' E 003°48'0 0.0
2017-Nov-17 12:59N 51°13' E 003°48'0 0.0
2017-Nov-17 12:29N 51°13' E 003°48'0 0.0
2017-Nov-17 11:59N 51°13' E 003°48'0 0.0
2017-Nov-17 11:26N 51°13' E 003°48'0 0.0
2017-Nov-17 10:59N 51°13' E 003°48'0 0.0
2017-Nov-17 10:29N 51°13' E 003°48'0 0.0
2017-Nov-17 09:59N 51°13' E 003°48'0 0.0
2017-Nov-17 09:29N 51°13' E 003°48'0 0.0
2017-Nov-17 08:59N 51°13' E 003°48'0 0.0
2017-Nov-17 08:29N 51°13' E 003°48'0 0.0
2017-Nov-17 07:59N 51°13' E 003°48'0 0.0
2017-Nov-17 07:29N 51°13' E 003°48'0 0.0
2017-Nov-17 06:59N 51°13' E 003°48'0 0.0
2017-Nov-17 06:29N 51°13' E 003°48'0 0.0
2017-Nov-17 05:59N 51°13' E 003°48'0 0.0
2017-Nov-17 05:29N 51°13' E 003°48'0 0.0
2017-Nov-17 04:59N 51°13' E 003°48'0 0.0
2017-Nov-17 04:29N 51°13' E 003°48'0 0.0
2017-Nov-17 03:59N 51°13' E 003°48'0 0.0
2017-Nov-17 03:29N 51°13' E 003°48'0 0.0
2017-Nov-17 02:59N 51°13' E 003°48'0 0.0
2017-Nov-17 02:29N 51°13' E 003°48'0 0.0
2017-Nov-17 01:59N 51°13' E 003°48'0 0.0
2017-Nov-17 01:29N 51°13' E 003°48'0 0.0
2017-Nov-17 00:59N 51°13' E 003°48'0 0.0
2017-Nov-17 00:29N 51°13' E 003°48'0 0.0
2017-Nov-16 23:59N 51°13' E 003°48'0 0.0
2017-Nov-16 23:29N 51°13' E 003°48'0 0.0
2017-Nov-16 22:59N 51°13' E 003°48'0 0.0
2017-Nov-16 22:29N 51°13' E 003°48'0 0.0
2017-Nov-16 21:59N 51°13' E 003°48'0 0.0
2017-Nov-16 21:29N 51°13' E 003°48'0 0.0
2017-Nov-16 20:59N 51°13' E 003°48'0 0.0
2017-Nov-16 20:29N 51°13' E 003°48'0 0.1
2017-Nov-16 19:59N 51°13' E 003°48'0 0.0
2017-Nov-16 19:29N 51°13' E 003°48'0 0.0
2017-Nov-16 18:59N 51°13' E 003°48'0 0.0
2017-Nov-16 18:29N 51°13' E 003°48'0 0.0
2017-Nov-16 17:59N 51°13' E 003°48'0 0.0
2017-Nov-16 17:29N 51°13' E 003°48'0 0.0
2017-Nov-16 16:59N 51°13' E 003°48'0 0.0
2017-Nov-16 16:29N 51°13' E 003°48'0 0.0
2017-Nov-16 15:59N 51°13' E 003°48'0 0.0
2017-Nov-16 15:29N 51°13' E 003°48'0 0.0
2017-Nov-16 14:59N 51°13' E 003°48'0 0.0
2017-Nov-16 14:29N 51°13' E 003°48'0 0.0
2017-Nov-16 13:56N 51°13' E 003°48'0 0.0
2017-Nov-16 13:29N 51°13' E 003°48'0 0.0
2017-Nov-16 12:59N 51°13' E 003°48'0 0.0
2017-Nov-16 12:29N 51°13' E 003°48'0 0.6
2017-Nov-16 12:00N 51°13' E 003°48'3 6.7
2017-Nov-16 11:30N 51°17' E 003°50'3 6.7
2017-Nov-16 11:00N 51°20' E 003°49'0 0.9
2017-Nov-16 10:30N 51°20' E 003°49'0 0.3
2017-Nov-16 10:00N 51°20' E 003°49'1 1.1
2017-Nov-16 09:30N 51°21' E 003°48'5 9.1
2017-Nov-16 09:00N 51°23' E 003°42'611.9
2017-Nov-16 08:31N 51°26' E 003°34'713.2
2017-Nov-16 08:01N 51°31' E 003°26'612.7
2017-Nov-16 07:30N 51°37' E 003°22'712.3
2017-Nov-16 06:58N 51°42' E 003°16'5 9.1
2017-Nov-16 06:28N 51°46' E 003°11'61 8.8
2017-Nov-15 23:28N 52°32' E 002°07'5 9.9
2017-Nov-15 22:59N 52°37' E 002°06'510.3
2017-Nov-15 22:30N 52°42' E 002°02'510.4
2017-Nov-15 21:59N 52°46' E 001°57'611.5
2017-Nov-15 21:30N 52°49' E 001°50'611.9
2017-Nov-15 21:00N 52°53' E 001°42'612.3
2017-Nov-15 20:30N 52°58' E 001°36'612.6
2017-Nov-15 20:00N 53°03' E 001°31'612.9
2017-Nov-15 19:30N 53°09' E 001°25'6513.0
2017-Nov-15 14:30N 54°04' E 000°25'713.3
2017-Nov-15 14:00N 54°09' E 000°20'713.3
2017-Nov-15 13:31N 54°15' E 000°14'713.1
2017-Nov-15 13:00N 54°21' E 000°08'612.9
2017-Nov-15 12:31N 54°26' E 000°02'612.7
2017-Nov-15 12:01N 54°32' W 000°03'612.5
2017-Nov-15 11:30N 54°37' W 000°09'612.2
2017-Nov-15 11:00N 54°42' W 000°15'5711.4
2017-Nov-15 06:01N 55°31' W 001°06'211.1
2017-Nov-15 05:51N 55°32' W 001°08'1511.2
2017-Nov-15 04:31N 55°45' W 001°22'011.2
2017-Nov-15 04:30N 55°45' W 001°22'611.4
2017-Nov-15 03:59N 55°48' W 001°31'611.8
2017-Nov-15 03:30N 55°51' W 001°40'611.9
2017-Nov-15 03:00N 55°54' W 001°49'612.0
2017-Nov-15 02:29N 55°57' W 001°58'612.3
2017-Nov-15 02:01N 56°00' W 002°07'612.3
2017-Nov-15 01:30N 56°03' W 002°17'612.2
2017-Nov-15 01:01N 56°06' W 002°27'612.1
2017-Nov-15 00:30N 56°07' W 002°37'611.9
2017-Nov-15 00:01N 56°09' W 002°48'611.5
2017-Nov-14 23:31N 56°10' W 002°58'2 3.2
2017-Nov-14 22:58N 56°11' W 003°01'0 0.0
2017-Nov-14 22:28N 56°11' W 003°01'0 0.0
2017-Nov-14 21:58N 56°11' W 003°01'0 0.0
2017-Nov-14 21:28N 56°11' W 003°01'0 0.0
2017-Nov-14 20:58N 56°11' W 003°01'0 0.0
2017-Nov-14 20:28N 56°11' W 003°01'0 0.0
2017-Nov-14 19:58N 56°11' W 003°01'0 0.0
2017-Nov-14 19:28N 56°11' W 003°01'0 0.0
2017-Nov-14 18:58N 56°11' W 003°01'0 0.0
2017-Nov-14 18:28N 56°11' W 003°01'0 0.0
2017-Nov-14 17:58N 56°11' W 003°01'0 0.0
2017-Nov-14 17:28N 56°11' W 003°01'0 0.0
2017-Nov-14 16:58N 56°11' W 003°01'0 0.0
2017-Nov-14 16:28N 56°11' W 003°01'0 0.0
2017-Nov-14 15:58N 56°11' W 003°01'0 0.0
2017-Nov-14 15:28N 56°11' W 003°01'0 0.0
2017-Nov-14 14:58N 56°11' W 003°01'  

Dump ship's entire track history